sensor_id;sensor_type;location;lat;lon;timestamp;pressure;altitude;pressure_sealevel;temperature;humidity
31096;BME280;17749;51.962;8.560;2023-05-19T05:01:08;101054.25;;;9.32;100.00
31096;BME280;17749;51.962;8.560;2023-05-19T05:03:35;101055.88;;;9.39;100.00
31096;BME280;17749;51.962;8.560;2023-05-19T05:06:03;101048.69;;;9.44;100.00
31096;BME280;17749;51.962;8.560;2023-05-19T05:08:31;101054.78;;;9.49;100.00
31096;BME280;17749;51.962;8.560;2023-05-19T05:10:58;101059.94;;;9.57;100.00
31096;BME280;17749;51.962;8.560;2023-05-19T05:13:26;101050.97;;;9.61;100.00
31096;BME280;17749;51.962;8.560;2023-05-19T05:15:53;101057.91;;;9.70;100.00
31096;BME280;17749;51.962;8.560;2023-05-19T05:18:22;101055.19;;;9.73;100.00
31096;BME280;17749;51.962;8.560;2023-05-19T05:20:49;101048.81;;;9.80;100.00
31096;BME280;17749;51.962;8.560;2023-05-19T05:23:16;101047.69;;;9.90;100.00
31096;BME280;17749;51.962;8.560;2023-05-19T05:25:46;101046.72;;;9.94;100.00
31096;BME280;17749;51.962;8.560;2023-05-19T05:28:14;101052.75;;;10.02;100.00
31096;BME280;17749;51.962;8.560;2023-05-19T05:30:42;101052.56;;;10.10;100.00
31096;BME280;17749;51.962;8.560;2023-05-19T05:33:09;101048.88;;;10.16;100.00
31096;BME280;17749;51.962;8.560;2023-05-19T05:35:39;101047.84;;;10.23;100.00
31096;BME280;17749;51.962;8.560;2023-05-19T05:38:08;101053.72;;;10.37;100.00
31096;BME280;17749;51.962;8.560;2023-05-19T05:40:38;101048.13;;;10.49;100.00
31096;BME280;17749;51.962;8.560;2023-05-19T05:43:06;101054.94;;;10.61;100.00
31096;BME280;17749;51.962;8.560;2023-05-19T05:45:39;101043.06;;;10.74;100.00
31096;BME280;17749;51.962;8.560;2023-05-19T05:48:06;101048.00;;;10.88;100.00
31096;BME280;17749;51.962;8.560;2023-05-19T05:50:56;101053.72;;;11.07;100.00
31096;BME280;17749;51.962;8.560;2023-05-19T05:54:21;101053.06;;;11.32;100.00
31096;BME280;17749;51.962;8.560;2023-05-19T05:56:49;101055.22;;;11.50;100.00
31096;BME280;17749;51.962;8.560;2023-05-19T05:59:16;101053.78;;;11.68;100.00
31096;BME280;17749;51.962;8.560;2023-05-19T06:01:43;101058.53;;;11.90;100.00
31096;BME280;17749;51.962;8.560;2023-05-19T06:04:11;101052.63;;;12.08;100.00
31096;BME280;17749;51.962;8.560;2023-05-19T06:06:38;101056.31;;;12.32;100.00
31096;BME280;17749;51.962;8.560;2023-05-19T06:09:06;101045.22;;;12.44;100.00
31096;BME280;17749;51.962;8.560;2023-05-19T06:11:33;101048.88;;;12.68;100.00
31096;BME280;17749;51.962;8.560;2023-05-19T06:14:01;101058.94;;;12.87;100.00
31096;BME280;17749;51.962;8.560;2023-05-19T06:16:47;101054.53;;;13.11;100.00
31096;BME280;17749;51.962;8.560;2023-05-19T06:19:15;101050.25;;;13.32;100.00
31096;BME280;17749;51.962;8.560;2023-05-19T06:21:42;101050.38;;;13.52;100.00
31096;BME280;17749;51.962;8.560;2023-05-19T06:24:10;101054.91;;;13.74;100.00
31096;BME280;17749;51.962;8.560;2023-05-19T06:26:37;101052.09;;;14.00;100.00
31096;BME280;17749;51.962;8.560;2023-05-19T06:29:04;101057.69;;;14.18;100.00
31096;BME280;17749;51.962;8.560;2023-05-19T06:31:31;101049.56;;;14.19;100.00
31096;BME280;17749;51.962;8.560;2023-05-19T06:34:08;101059.53;;;14.38;100.00
31096;BME280;17749;51.962;8.560;2023-05-19T06:36:38;101061.44;;;14.58;100.00
31096;BME280;17749;51.962;8.560;2023-05-19T06:39:08;101052.28;;;14.84;100.00
31096;BME280;17749;51.962;8.560;2023-05-19T06:41:35;101049.56;;;15.06;100.00
31096;BME280;17749;51.962;8.560;2023-05-19T06:44:03;101046.06;;;15.24;100.00
31096;BME280;17749;51.962;8.560;2023-05-19T06:46:32;101043.63;;;15.39;99.83
31096;BME280;17749;51.962;8.560;2023-05-19T06:48:59;101045.63;;;15.54;98.43
31096;BME280;17749;51.962;8.560;2023-05-19T06:51:30;101052.56;;;15.78;97.86
31096;BME280;17749;51.962;8.560;2023-05-19T06:53:58;101045.16;;;16.03;95.24
31096;BME280;17749;51.962;8.560;2023-05-19T06:56:26;101039.91;;;16.18;95.45
31096;BME280;17749;51.962;8.560;2023-05-19T06:58:54;101049.94;;;16.34;95.71
31096;BME280;17749;51.962;8.560;2023-05-19T07:01:25;101048.00;;;16.55;94.69
31096;BME280;17749;51.962;8.560;2023-05-19T07:03:54;101038.34;;;16.68;95.15
31096;BME280;17749;51.962;8.560;2023-05-19T07:06:21;101049.41;;;16.98;93.35
31096;BME280;17749;51.962;8.560;2023-05-19T07:08:50;101040.31;;;16.83;90.94
31096;BME280;17749;51.962;8.560;2023-05-19T07:11:18;101034.66;;;17.05;91.76
31096;BME280;17749;51.962;8.560;2023-05-19T07:13:46;101036.53;;;17.38;91.04
31096;BME280;17749;51.962;8.560;2023-05-19T07:16:19;101033.66;;;17.41;88.75
31096;BME280;17749;51.962;8.560;2023-05-19T07:18:47;101032.00;;;17.72;91.14
31096;BME280;17749;51.962;8.560;2023-05-19T07:21:14;101034.31;;;17.95;89.37
31096;BME280;17749;51.962;8.560;2023-05-19T07:23:41;101034.81;;;18.18;87.43
31096;BME280;17749;51.962;8.560;2023-05-19T07:26:10;101029.72;;;18.29;85.03
31096;BME280;17749;51.962;8.560;2023-05-19T07:28:37;101031.53;;;18.45;85.10
31096;BME280;17749;51.962;8.560;2023-05-19T07:31:07;101024.31;;;18.75;85.33
31096;BME280;17749;51.962;8.560;2023-05-19T07:33:34;101027.97;;;18.74;80.96
31096;BME280;17749;51.962;8.560;2023-05-19T07:36:01;101031.28;;;18.79;81.99
31096;BME280;17749;51.962;8.560;2023-05-19T07:38:29;101022.75;;;18.87;80.68
31096;BME280;17749;51.962;8.560;2023-05-19T07:40:57;101030.19;;;18.98;83.34
31096;BME280;17749;51.962;8.560;2023-05-19T07:43:24;101024.78;;;18.98;83.49
31096;BME280;17749;51.962;8.560;2023-05-19T07:45:51;101022.72;;;19.32;81.59
31096;BME280;17749;51.962;8.560;2023-05-19T07:48:19;101017.69;;;19.25;81.17
31096;BME280;17749;51.962;8.560;2023-05-19T07:50:48;101022.31;;;19.38;80.40
31096;BME280;17749;51.962;8.560;2023-05-19T07:53:15;101012.97;;;19.43;81.45
31096;BME280;17749;51.962;8.560;2023-05-19T07:55:42;101023.13;;;19.68;81.83
31096;BME280;17749;51.962;8.560;2023-05-19T07:58:09;101026.19;;;19.91;81.58
31096;BME280;17749;51.962;8.560;2023-05-19T08:00:36;101022.03;;;20.41;79.70
31096;BME280;17749;51.962;8.560;2023-05-19T08:03:04;101025.28;;;20.73;77.85
31096;BME280;17749;51.962;8.560;2023-05-19T08:05:33;101018.88;;;20.74;75.37
31096;BME280;17749;51.962;8.560;2023-05-19T08:08:01;101023.28;;;21.02;75.93
31096;BME280;17749;51.962;8.560;2023-05-19T08:10:31;101024.88;;;20.92;72.67
31096;BME280;17749;51.962;8.560;2023-05-19T08:12:59;101021.50;;;20.76;72.99
31096;BME280;17749;51.962;8.560;2023-05-19T08:15:27;101019.22;;;20.70;71.87
31096;BME280;17749;51.962;8.560;2023-05-19T08:17:57;101017.94;;;21.01;73.01
31096;BME280;17749;51.962;8.560;2023-05-19T08:20:27;101011.56;;;20.89;70.36
31096;BME280;17749;51.962;8.560;2023-05-19T08:22:55;101010.13;;;20.71;71.61
31096;BME280;17749;51.962;8.560;2023-05-19T08:25:23;101016.75;;;20.52;73.17
31096;BME280;17749;51.962;8.560;2023-05-19T08:27:54;101018.41;;;20.41;72.36
31096;BME280;17749;51.962;8.560;2023-05-19T08:30:45;101012.34;;;20.37;71.70
31096;BME280;17749;51.962;8.560;2023-05-19T08:33:12;101004.66;;;20.58;71.11
31096;BME280;17749;51.962;8.560;2023-05-19T08:35:39;101000.03;;;20.60;73.88
31096;BME280;17749;51.962;8.560;2023-05-19T08:38:06;100994.53;;;20.87;71.97
31096;BME280;17749;51.962;8.560;2023-05-19T08:40:36;100994.09;;;20.68;71.34
31096;BME280;17749;51.962;8.560;2023-05-19T08:43:03;100993.03;;;20.83;71.00
31096;BME280;17749;51.962;8.560;2023-05-19T08:45:31;100983.28;;;20.81;70.40
31096;BME280;17749;51.962;8.560;2023-05-19T08:48:01;100990.41;;;20.69;70.79
31096;BME280;17749;51.962;8.560;2023-05-19T08:50:30;100985.88;;;20.42;70.78
31096;BME280;17749;51.962;8.560;2023-05-19T08:53:07;100987.97;;;20.51;71.85
31096;BME280;17749;51.962;8.560;2023-05-19T08:56:11;100988.22;;;20.61;71.92
31096;BME280;17749;51.962;8.560;2023-05-19T08:58:41;100978.75;;;20.81;73.07
31096;BME280;17749;51.962;8.560;2023-05-19T09:01:10;100980.72;;;21.30;73.40
31096;BME280;17749;51.962;8.560;2023-05-19T09:03:39;100983.06;;;21.73;72.70
31096;BME280;17749;51.962;8.560;2023-05-19T09:06:09;100979.06;;;21.66;71.24
31096;BME280;17749;51.962;8.560;2023-05-19T09:08:39;100972.66;;;21.80;69.75
31096;BME280;17749;51.962;8.560;2023-05-19T09:11:07;100974.75;;;21.87;68.77
31096;BME280;17749;51.962;8.560;2023-05-19T09:13:34;100971.44;;;21.84;69.34
31096;BME280;17749;51.962;8.560;2023-05-19T09:16:02;100966.56;;;21.76;66.29
31096;BME280;17749;51.962;8.560;2023-05-19T09:18:32;100967.88;;;21.71;68.74
31096;BME280;17749;51.962;8.560;2023-05-19T09:21:00;100973.88;;;21.50;64.92
31096;BME280;17749;51.962;8.560;2023-05-19T09:23:30;100970.84;;;21.55;68.37
31096;BME280;17749;51.962;8.560;2023-05-19T09:26:03;100963.31;;;21.71;68.19
31096;BME280;17749;51.962;8.560;2023-05-19T09:28:35;100962.97;;;22.13;67.04
31096;BME280;17749;51.962;8.560;2023-05-19T09:31:06;100960.66;;;21.95;67.17
31096;BME280;17749;51.962;8.560;2023-05-19T09:33:39;100964.91;;;21.86;66.69
31096;BME280;17749;51.962;8.560;2023-05-19T09:36:12;100948.31;;;21.54;68.35
31096;BME280;17749;51.962;8.560;2023-05-19T09:38:39;100957.25;;;21.80;67.19
31096;BME280;17749;51.962;8.560;2023-05-19T09:41:13;100950.69;;;21.96;64.51
31096;BME280;17749;51.962;8.560;2023-05-19T09:43:40;100951.94;;;22.03;65.50
31096;BME280;17749;51.962;8.560;2023-05-19T09:46:09;100955.13;;;21.97;65.51
31096;BME280;17749;51.962;8.560;2023-05-19T09:48:40;100940.97;;;21.43;61.31
31096;BME280;17749;51.962;8.560;2023-05-19T09:51:08;100944.28;;;21.34;60.90
31096;BME280;17749;51.962;8.560;2023-05-19T09:53:38;100936.19;;;21.09;59.46
31096;BME280;17749;51.962;8.560;2023-05-19T09:56:07;100930.03;;;20.94;61.12
31096;BME280;17749;51.962;8.560;2023-05-19T09:58:34;100933.16;;;21.00;64.16
31096;BME280;17749;51.962;8.560;2023-05-19T10:01:03;100938.47;;;20.89;61.21
31096;BME280;17749;51.962;8.560;2023-05-19T10:03:30;100925.44;;;20.56;61.10
31096;BME280;17749;51.962;8.560;2023-05-19T10:06:03;100927.19;;;20.70;61.03
31096;BME280;17749;51.962;8.560;2023-05-19T10:08:31;100926.28;;;20.56;60.88
31096;BME280;17749;51.962;8.560;2023-05-19T10:10:59;100923.50;;;20.58;61.71
31096;BME280;17749;51.962;8.560;2023-05-19T10:13:28;100924.03;;;20.63;61.38
31096;BME280;17749;51.962;8.560;2023-05-19T10:15:56;100921.91;;;20.81;61.56
31096;BME280;17749;51.962;8.560;2023-05-19T10:18:26;100926.78;;;21.01;60.04
31096;BME280;17749;51.962;8.560;2023-05-19T10:20:55;100915.91;;;21.27;63.14
31096;BME280;17749;51.962;8.560;2023-05-19T10:23:24;100907.63;;;21.67;62.56
31096;BME280;17749;51.962;8.560;2023-05-19T10:25:53;100920.66;;;21.86;62.78
31096;BME280;17749;51.962;8.560;2023-05-19T10:28:23;100909.50;;;21.54;58.73
31096;BME280;17749;51.962;8.560;2023-05-19T10:30:57;100905.91;;;21.53;58.75
31096;BME280;17749;51.962;8.560;2023-05-19T10:36:52;100902.28;;;21.16;58.05
31096;BME280;17749;51.962;8.560;2023-05-19T10:39:28;100899.56;;;21.41;61.28
31096;BME280;17749;51.962;8.560;2023-05-19T10:42:35;100907.16;;;21.73;61.04
31096;BME280;17749;51.962;8.560;2023-05-19T10:45:16;100915.53;;;21.70;58.93
31096;BME280;17749;51.962;8.560;2023-05-19T10:47:44;100899.19;;;21.59;58.81
31096;BME280;17749;51.962;8.560;2023-05-19T10:50:12;100906.06;;;21.26;58.21
31096;BME280;17749;51.962;8.560;2023-05-19T10:52:39;100907.06;;;21.12;60.55
31096;BME280;17749;51.962;8.560;2023-05-19T10:55:07;100907.16;;;20.85;59.17
31096;BME280;17749;51.962;8.560;2023-05-19T10:57:34;100905.94;;;20.64;60.93
31096;BME280;17749;51.962;8.560;2023-05-19T11:00:05;100908.50;;;20.40;61.23
31096;BME280;17749;51.962;8.560;2023-05-19T11:02:50;100909.34;;;20.40;59.88
31096;BME280;17749;51.962;8.560;2023-05-19T11:05:28;100911.31;;;20.51;59.79
31096;BME280;17749;51.962;8.560;2023-05-19T11:07:57;100902.81;;;20.57;60.74
31096;BME280;17749;51.962;8.560;2023-05-19T11:10:30;100900.66;;;20.75;61.74
31096;BME280;17749;51.962;8.560;2023-05-19T11:12:57;100898.31;;;20.96;59.91
31096;BME280;17749;51.962;8.560;2023-05-19T11:15:26;100895.16;;;20.89;60.04
31096;BME280;17749;51.962;8.560;2023-05-19T11:18:00;100897.53;;;20.94;58.62
31096;BME280;17749;51.962;8.560;2023-05-19T11:20:31;100900.03;;;20.97;58.53
31096;BME280;17749;51.962;8.560;2023-05-19T11:23:27;100896.22;;;20.99;59.52
31096;BME280;17749;51.962;8.560;2023-05-19T11:26:08;100896.22;;;21.12;58.54
31096;BME280;17749;51.962;8.560;2023-05-19T11:28:46;100892.50;;;21.26;58.44
31096;BME280;17749;51.962;8.560;2023-05-19T11:31:42;100909.22;;;21.07;59.50
31096;BME280;17749;51.962;8.560;2023-05-19T11:34:19;100901.31;;;21.17;59.21
31096;BME280;17749;51.962;8.560;2023-05-19T11:36:47;100889.47;;;21.43;58.65
31096;BME280;17749;51.962;8.560;2023-05-19T11:39:15;100878.53;;;21.69;58.48
31096;BME280;17749;51.962;8.560;2023-05-19T11:41:46;100889.47;;;21.43;56.00
31096;BME280;17749;51.962;8.560;2023-05-19T11:44:19;100874.84;;;21.46;57.44
31096;BME280;17749;51.962;8.560;2023-05-19T11:46:54;100879.50;;;21.44;57.07
31096;BME280;17749;51.962;8.560;2023-05-19T11:49:31;100888.47;;;21.32;57.99
31096;BME280;17749;51.962;8.560;2023-05-19T11:52:31;100872.44;;;21.78;57.84
31096;BME280;17749;51.962;8.560;2023-05-19T11:55:01;100889.09;;;21.85;57.06
31096;BME280;17749;51.962;8.560;2023-05-19T11:57:28;100880.53;;;21.67;56.40
31096;BME280;17749;51.962;8.560;2023-05-19T11:59:55;100879.59;;;21.79;58.30
31096;BME280;17749;51.962;8.560;2023-05-19T12:02:23;100872.72;;;22.10;57.52
31096;BME280;17749;51.962;8.560;2023-05-19T12:04:51;100872.09;;;22.42;58.41
31096;BME280;17749;51.962;8.560;2023-05-19T12:07:22;100874.22;;;22.50;57.71
31096;BME280;17749;51.962;8.560;2023-05-19T12:09:50;100880.22;;;22.31;57.40
31096;BME280;17749;51.962;8.560;2023-05-19T12:12:19;100870.47;;;22.28;55.47
31096;BME280;17749;51.962;8.560;2023-05-19T12:14:49;100864.38;;;22.49;55.44
31096;BME280;17749;51.962;8.560;2023-05-19T12:17:18;100868.88;;;22.37;57.29
31096;BME280;17749;51.962;8.560;2023-05-19T12:19:46;100869.25;;;22.33;57.46
31096;BME280;17749;51.962;8.560;2023-05-19T12:22:15;100862.84;;;22.34;58.31
31096;BME280;17749;51.962;8.560;2023-05-19T12:24:43;100864.56;;;22.35;57.24
31096;BME280;17749;51.962;8.560;2023-05-19T12:27:11;100870.78;;;22.48;56.66
31096;BME280;17749;51.962;8.560;2023-05-19T12:29:41;100854.47;;;22.13;56.63
31096;BME280;17749;51.962;8.560;2023-05-19T12:32:08;100853.06;;;21.96;57.40
31096;BME280;17749;51.962;8.560;2023-05-19T12:34:36;100864.81;;;21.83;57.18
31096;BME280;17749;51.962;8.560;2023-05-19T12:37:04;100862.75;;;21.63;58.13
31096;BME280;17749;51.962;8.560;2023-05-19T12:39:34;100860.22;;;21.73;57.77
31096;BME280;17749;51.962;8.560;2023-05-19T12:42:03;100862.59;;;21.77;57.07
31096;BME280;17749;51.962;8.560;2023-05-19T12:44:30;100867.63;;;21.58;58.02
31096;BME280;17749;51.962;8.560;2023-05-19T12:46:57;100865.19;;;21.42;58.28
31096;BME280;17749;51.962;8.560;2023-05-19T12:49:25;100849.56;;;21.45;58.99
31096;BME280;17749;51.962;8.560;2023-05-19T12:51:52;100846.75;;;21.71;59.86
31096;BME280;17749;51.962;8.560;2023-05-19T12:54:20;100841.41;;;22.06;57.86
31096;BME280;17749;51.962;8.560;2023-05-19T12:56:51;100851.31;;;21.95;58.24
31096;BME280;17749;51.962;8.560;2023-05-19T12:59:22;100847.41;;;21.99;58.48
31096;BME280;17749;51.962;8.560;2023-05-19T13:02:05;100846.22;;;22.14;55.92
31096;BME280;17749;51.962;8.560;2023-05-19T13:04:32;100846.09;;;22.16;56.60
31096;BME280;17749;51.962;8.560;2023-05-19T13:06:59;100832.59;;;22.03;58.42
31096;BME280;17749;51.962;8.560;2023-05-19T13:09:26;100842.84;;;21.75;58.92
31096;BME280;17749;51.962;8.560;2023-05-19T13:11:53;100833.44;;;21.68;59.33
31096;BME280;17749;51.962;8.560;2023-05-19T13:14:20;100834.78;;;21.62;59.74
31096;BME280;17749;51.962;8.560;2023-05-19T13:16:47;100831.25;;;21.73;60.08
31096;BME280;17749;51.962;8.560;2023-05-19T13:19:18;100830.56;;;21.82;58.08
31096;BME280;17749;51.962;8.560;2023-05-19T13:21:48;100828.50;;;21.62;58.53
31096;BME280;17749;51.962;8.560;2023-05-19T13:24:16;100827.16;;;21.67;58.80
31096;BME280;17749;51.962;8.560;2023-05-19T13:26:43;100822.94;;;21.87;58.59
31096;BME280;17749;51.962;8.560;2023-05-19T13:29:10;100826.28;;;21.91;58.64
31096;BME280;17749;51.962;8.560;2023-05-19T13:31:37;100842.03;;;21.62;58.45
31096;BME280;17749;51.962;8.560;2023-05-19T13:34:04;100839.63;;;21.46;58.43
31096;BME280;17749;51.962;8.560;2023-05-19T13:36:31;100838.00;;;21.67;60.05
31096;BME280;17749;51.962;8.560;2023-05-19T13:38:58;100823.16;;;21.84;59.14
31096;BME280;17749;51.962;8.560;2023-05-19T13:41:26;100820.53;;;21.96;57.72
31096;BME280;17749;51.962;8.560;2023-05-19T13:43:58;100824.75;;;22.11;58.74
31096;BME280;17749;51.962;8.560;2023-05-19T13:46:25;100820.81;;;22.15;58.02
31096;BME280;17749;51.962;8.560;2023-05-19T13:49:10;100822.72;;;21.91;56.05
31096;BME280;17749;51.962;8.560;2023-05-19T13:51:40;100816.19;;;21.69;57.88
31096;BME280;17749;51.962;8.560;2023-05-19T13:54:08;100807.94;;;21.95;56.71
31096;BME280;17749;51.962;8.560;2023-05-19T13:56:35;100799.69;;;21.96;56.95
31096;BME280;17749;51.962;8.560;2023-05-19T13:59:02;100808.25;;;21.55;57.67
31096;BME280;17749;51.962;8.560;2023-05-19T14:01:30;100798.69;;;21.38;58.75
31096;BME280;17749;51.962;8.560;2023-05-19T14:03:57;100816.88;;;21.23;58.55
31096;BME280;17749;51.962;8.560;2023-05-19T14:06:24;100816.72;;;21.00;58.87
31096;BME280;17749;51.962;8.560;2023-05-19T14:08:51;100816.13;;;21.21;59.56
31096;BME280;17749;51.962;8.560;2023-05-19T14:11:18;100802.59;;;21.21;59.30
31096;BME280;17749;51.962;8.560;2023-05-19T14:13:47;100807.63;;;21.14;59.40
31096;BME280;17749;51.962;8.560;2023-05-19T14:16:19;100808.28;;;20.92;58.88
31096;BME280;17749;51.962;8.560;2023-05-19T14:18:48;100808.97;;;20.83;59.54
31096;BME280;17749;51.962;8.560;2023-05-19T14:21:15;100813.69;;;20.92;59.93
31096;BME280;17749;51.962;8.560;2023-05-19T14:23:42;100806.75;;;21.01;61.48
31096;BME280;17749;51.962;8.560;2023-05-19T14:26:09;100800.69;;;20.97;60.15
31096;BME280;17749;51.962;8.560;2023-05-19T14:28:36;100802.22;;;21.01;61.19
31096;BME280;17749;51.962;8.560;2023-05-19T14:31:03;100805.47;;;21.07;59.92
31096;BME280;17749;51.962;8.560;2023-05-19T14:33:30;100809.16;;;20.80;59.90
31096;BME280;17749;51.962;8.560;2023-05-19T14:36:01;100810.34;;;20.38;59.91
31096;BME280;17749;51.962;8.560;2023-05-19T14:38:28;100806.31;;;20.05;60.86
31096;BME280;17749;51.962;8.560;2023-05-19T14:40:55;100811.09;;;19.74;60.95
31096;BME280;17749;51.962;8.560;2023-05-19T14:43:22;100806.75;;;19.72;61.42
31096;BME280;17749;51.962;8.560;2023-05-19T14:45:49;100801.31;;;19.86;60.77
31096;BME280;17749;51.962;8.560;2023-05-19T14:48:16;100800.88;;;19.92;60.64
31096;BME280;17749;51.962;8.560;2023-05-19T14:50:45;100799.84;;;20.07;62.38
31096;BME280;17749;51.962;8.560;2023-05-19T14:53:14;100797.47;;;20.16;61.30
31096;BME280;17749;51.962;8.560;2023-05-19T14:55:42;100802.31;;;20.10;60.73
31096;BME280;17749;51.962;8.560;2023-05-19T14:58:12;100804.25;;;20.08;59.40
31096;BME280;17749;51.962;8.560;2023-05-19T15:00:56;100800.03;;;20.04;59.50
31096;BME280;17749;51.962;8.560;2023-05-19T15:03:24;100800.47;;;20.11;60.53
31096;BME280;17749;51.962;8.560;2023-05-19T15:05:51;100798.78;;;20.23;59.55
31096;BME280;17749;51.962;8.560;2023-05-19T15:08:18;100797.69;;;20.25;59.50
31096;BME280;17749;51.962;8.560;2023-05-19T15:10:48;100806.94;;;20.08;58.27
31096;BME280;17749;51.962;8.560;2023-05-19T15:13:16;100800.88;;;19.92;59.95
31096;BME280;17749;51.962;8.560;2023-05-19T15:15:44;100812.28;;;19.83;58.83
31096;BME280;17749;51.962;8.560;2023-05-19T15:18:11;100803.44;;;19.81;60.50
31096;BME280;17749;51.962;8.560;2023-05-19T15:20:42;100805.38;;;19.79;59.97
31096;BME280;17749;51.962;8.560;2023-05-19T15:23:09;100795.22;;;19.82;60.09
31096;BME280;17749;51.962;8.560;2023-05-19T15:25:36;100801.09;;;19.89;60.53
31096;BME280;17749;51.962;8.560;2023-05-19T15:28:03;100791.16;;;20.02;60.37
31096;BME280;17749;51.962;8.560;2023-05-19T15:30:31;100787.03;;;20.09;60.14
31096;BME280;17749;51.962;8.560;2023-05-19T15:32:58;100791.50;;;20.10;60.57
31096;BME280;17749;51.962;8.560;2023-05-19T15:35:26;100786.63;;;20.03;59.34
31096;BME280;17749;51.962;8.560;2023-05-19T15:37:53;100779.69;;;19.86;60.47
31096;BME280;17749;51.962;8.560;2023-05-19T15:40:20;100786.13;;;19.70;59.80
31096;BME280;17749;51.962;8.560;2023-05-19T15:42:47;100792.78;;;19.65;61.70
31096;BME280;17749;51.962;8.560;2023-05-19T15:45:14;100792.16;;;19.47;61.65
31096;BME280;17749;51.962;8.560;2023-05-19T15:47:41;100798.16;;;19.38;62.42
31096;BME280;17749;51.962;8.560;2023-05-19T15:50:08;100791.81;;;19.39;63.05
31096;BME280;17749;51.962;8.560;2023-05-19T15:52:35;100788.34;;;19.37;62.20
31096;BME280;17749;51.962;8.560;2023-05-19T15:55:02;100779.16;;;19.39;63.05
31096;BME280;17749;51.962;8.560;2023-05-19T15:57:29;100777.13;;;19.43;62.15
31096;BME280;17749;51.962;8.560;2023-05-19T15:59:56;100777.31;;;19.40;62.71
31096;BME280;17749;51.962;8.560;2023-05-19T16:02:23;100779.88;;;19.29;60.96
31096;BME280;17749;51.962;8.560;2023-05-19T16:04:50;100780.06;;;19.25;61.50
31096;BME280;17749;51.962;8.560;2023-05-19T16:07:17;100768.16;;;19.15;61.71
31096;BME280;17749;51.962;8.560;2023-05-19T16:09:44;100773.56;;;19.15;63.00
31096;BME280;17749;51.962;8.560;2023-05-19T16:12:11;100763.81;;;19.13;62.12
31096;BME280;17749;51.962;8.560;2023-05-19T16:14:38;100767.25;;;19.15;62.88
31096;BME280;17749;51.962;8.560;2023-05-19T16:17:05;100761.34;;;19.22;64.22
31096;BME280;17749;51.962;8.560;2023-05-19T16:19:37;100743.59;;;19.33;63.64
31096;BME280;17749;51.962;8.560;2023-05-19T16:22:04;100763.06;;;19.38;63.60
31096;BME280;17749;51.962;8.560;2023-05-19T16:24:31;100766.56;;;19.25;63.19
31096;BME280;17749;51.962;8.560;2023-05-19T16:26:58;100763.13;;;19.09;62.11
31096;BME280;17749;51.962;8.560;2023-05-19T16:29:25;100766.44;;;19.00;63.33
31096;BME280;17749;51.962;8.560;2023-05-19T16:31:51;100774.34;;;18.89;63.53
31096;BME280;17749;51.962;8.560;2023-05-19T16:34:19;100768.56;;;18.80;63.86
31096;BME280;17749;51.962;8.560;2023-05-19T16:36:45;100771.06;;;18.69;63.38
31096;BME280;17749;51.962;8.560;2023-05-19T16:39:12;100764.81;;;18.54;64.17
31096;BME280;17749;51.962;8.560;2023-05-19T16:41:40;100762.59;;;18.47;64.73
31096;BME280;17749;51.962;8.560;2023-05-19T16:44:07;100759.22;;;18.43;64.43
31096;BME280;17749;51.962;8.560;2023-05-19T16:46:34;100763.38;;;18.49;65.20
31096;BME280;17749;51.962;8.560;2023-05-19T16:49:01;100760.09;;;18.58;64.96
31096;BME280;17749;51.962;8.560;2023-05-19T16:51:28;100765.28;;;18.61;64.45
31096;BME280;17749;51.962;8.560;2023-05-19T16:53:55;100761.81;;;18.59;63.79
31096;BME280;17749;51.962;8.560;2023-05-19T16:56:22;100758.47;;;18.55;63.65
31096;BME280;17749;51.962;8.560;2023-05-19T16:58:49;100761.16;;;18.55;63.92
31096;BME280;17749;51.962;8.560;2023-05-19T17:01:16;100763.16;;;18.52;63.82
31096;BME280;17749;51.962;8.560;2023-05-19T17:03:43;100765.28;;;18.47;65.08
31096;BME280;17749;51.962;8.560;2023-05-19T17:06:10;100766.25;;;18.46;64.47
31096;BME280;17749;51.962;8.560;2023-05-19T17:08:37;100763.56;;;18.46;65.41
31096;BME280;17749;51.962;8.560;2023-05-19T17:11:04;100763.56;;;18.46;66.06
31096;BME280;17749;51.962;8.560;2023-05-19T17:13:32;100762.50;;;18.48;66.21
31096;BME280;17749;51.962;8.560;2023-05-19T17:16:02;100764.22;;;18.49;66.47
31096;BME280;17749;51.962;8.560;2023-05-19T17:18:29;100754.69;;;18.44;66.66
31096;BME280;17749;51.962;8.560;2023-05-19T17:20:57;100756.81;;;18.38;66.88
31096;BME280;17749;51.962;8.560;2023-05-19T17:23:29;100754.03;;;18.40;67.30
31096;BME280;17749;51.962;8.560;2023-05-19T17:25:56;100750.47;;;18.39;68.61
31096;BME280;17749;51.962;8.560;2023-05-19T17:28:23;100750.16;;;18.44;67.98
31096;BME280;17749;51.962;8.560;2023-05-19T17:30:50;100745.16;;;18.38;66.63
31096;BME280;17749;51.962;8.560;2023-05-19T17:33:17;100754.41;;;18.34;67.18
31096;BME280;17749;51.962;8.560;2023-05-19T17:35:44;100765.47;;;18.29;65.75
31096;BME280;17749;51.962;8.560;2023-05-19T17:38:11;100760.91;;;18.15;66.87
31096;BME280;17749;51.962;8.560;2023-05-19T17:40:38;100766.28;;;18.01;66.95
31096;BME280;17749;51.962;8.560;2023-05-19T17:43:07;100766.28;;;17.87;67.37
31096;BME280;17749;51.962;8.560;2023-05-19T17:45:34;100763.22;;;17.77;67.69
31096;BME280;17749;51.962;8.560;2023-05-19T17:48:01;100764.53;;;17.70;68.43
31096;BME280;17749;51.962;8.560;2023-05-19T17:50:28;100760.19;;;17.67;68.84
31096;BME280;17749;51.962;8.560;2023-05-19T17:52:59;100755.88;;;17.65;69.10
31096;BME280;17749;51.962;8.560;2023-05-19T17:55:27;100753.28;;;17.63;69.13
31096;BME280;17749;51.962;8.560;2023-05-19T17:57:56;100757.19;;;17.58;69.59
31096;BME280;17749;51.962;8.560;2023-05-19T18:00:23;100758.34;;;17.53;69.81
31096;BME280;17749;51.962;8.560;2023-05-19T18:02:51;100759.88;;;17.58;70.26